createdAt,value
2022-11-10T00:00:13.977Z,116.70
2022-11-10T00:03:08.858Z,125.95
2022-11-10T00:05:55.035Z,140.50
2022-11-10T00:08:40.950Z,123.35
2022-11-10T00:11:26.647Z,112.00
2022-11-10T00:14:30.969Z,93.57
2022-11-10T00:17:16.822Z,111.15
2022-11-10T00:20:03.106Z,104.10
2022-11-10T00:22:48.652Z,106.50
2022-11-10T00:25:34.431Z,94.75
2022-11-10T00:28:20.253Z,93.82
2022-11-10T00:31:07.563Z,98.97
2022-11-10T00:33:53.598Z,105.07
2022-11-10T00:36:39.795Z,93.93
2022-11-10T00:39:25.810Z,97.53
2022-11-10T00:42:11.483Z,98.85
2022-11-10T00:44:57.290Z,91.47
2022-11-10T00:47:45.931Z,99.05
2022-11-10T00:50:31.579Z,79.38
2022-11-10T00:53:17.327Z,81.65
2022-11-10T00:56:03.107Z,77.43
2022-11-10T00:58:49.128Z,70.53
2022-11-10T01:01:35.015Z,63.97
2022-11-10T01:04:20.564Z,59.55
2022-11-10T01:07:06.223Z,67.22
2022-11-10T01:09:51.884Z,65.25
2022-11-10T01:12:37.415Z,68.47
2022-11-10T01:15:27.219Z,68.35
2022-11-10T01:18:13.512Z,60.20
2022-11-10T01:20:59.239Z,58.75
2022-11-10T01:23:46.404Z,54.80
2022-11-10T01:26:32.120Z,65.72
2022-11-10T01:29:17.724Z,58.70
2022-11-10T01:32:03.442Z,58.03
2022-11-10T01:34:49.198Z,64.05
2022-11-10T01:37:35.128Z,63.05
2022-11-10T01:40:20.744Z,57.28
2022-11-10T01:43:06.263Z,55.92
2022-11-10T01:46:11.431Z,53.47
2022-11-10T01:49:01.378Z,58.60
2022-11-10T01:52:11.137Z,52.15
2022-11-10T01:54:56.766Z,51.70
2022-11-10T01:57:43.181Z,49.58
2022-11-10T02:00:28.611Z,54.67
2022-11-10T02:03:57.569Z,53.75
2022-11-10T02:06:46.234Z,56.83
2022-11-10T02:09:32.114Z,47.83
2022-11-10T02:12:36.095Z,48.53
2022-11-10T02:15:21.667Z,57.47
2022-11-10T02:18:07.169Z,52.38
2022-11-10T02:20:52.839Z,53.65
2022-11-10T02:23:38.595Z,56.58
2022-11-10T02:26:29.372Z,48.42
2022-11-10T02:29:15.171Z,50.15
2022-11-10T02:32:00.837Z,53.67
2022-11-10T02:34:46.580Z,54.50
2022-11-10T02:37:32.636Z,59.13
2022-11-10T02:40:18.316Z,53.42
2022-11-10T02:43:07.440Z,53.50
2022-11-10T02:45:53.182Z,59.25
2022-11-10T02:48:38.870Z,61.88
2022-11-10T02:51:24.779Z,59.85
2022-11-10T02:54:10.172Z,77.85
2022-11-10T02:56:55.917Z,77.97
2022-11-10T02:59:41.590Z,80.25
2022-11-10T03:02:31.164Z,74.43
2022-11-10T03:05:17.833Z,79.50
2022-11-10T03:08:03.887Z,73.30
2022-11-10T03:10:54.626Z,70.15
2022-11-10T03:14:00.425Z,79.00
2022-11-10T03:16:46.207Z,82.35
2022-11-10T03:19:31.911Z,75.53
2022-11-10T03:22:17.312Z,70.00
2022-11-10T03:25:04.206Z,78.55
2022-11-10T03:27:49.597Z,63.35
2022-11-10T03:30:35.449Z,52.17
2022-11-10T03:33:21.506Z,56.17
2022-11-10T03:36:07.447Z,49.58
2022-11-10T03:38:53.228Z,48.50
2022-11-10T03:41:39.225Z,44.40
2022-11-10T03:44:24.838Z,47.17
2022-11-10T03:47:10.659Z,48.38
2022-11-10T03:49:56.896Z,61.17
2022-11-10T03:52:44.851Z,68.05
2022-11-10T03:55:30.327Z,71.20
2022-11-10T03:58:15.981Z,74.97
2022-11-10T04:01:01.659Z,72.00
2022-11-10T04:03:51.229Z,70.97
2022-11-10T04:06:55.948Z,52.22
2022-11-10T04:09:41.861Z,45.15
2022-11-10T04:12:46.560Z,48.60
2022-11-10T04:15:41.702Z,47.55
2022-11-10T04:18:28.991Z,44.28
2022-11-10T04:21:14.832Z,50.90
2022-11-10T04:24:00.477Z,44.95
2022-11-10T04:26:47.924Z,48.05
2022-11-10T04:29:33.995Z,54.63
2022-11-10T04:32:19.692Z,72.95
2022-11-10T04:35:05.626Z,76.82
2022-11-10T04:37:51.256Z,78.43
2022-11-10T04:40:36.954Z,57.50
2022-11-10T04:43:22.968Z,51.05
2022-11-10T04:46:27.709Z,58.50
2022-11-10T04:49:13.540Z,57.60
2022-11-10T04:51:59.438Z,60.95
2022-11-10T04:54:45.231Z,67.95
2022-11-10T04:57:31.220Z,67.07
2022-11-10T05:00:17.797Z,59.15
2022-11-10T05:03:07.492Z,58.60
2022-11-10T05:05:53.037Z,60.45
2022-11-10T05:08:40.855Z,64.35
2022-11-10T05:11:26.638Z,61.45
2022-11-10T05:14:12.309Z,55.53
2022-11-10T05:16:58.073Z,55.95
2022-11-10T05:19:43.644Z,54.53
2022-11-10T05:22:29.475Z,52.08
2022-11-10T05:25:15.379Z,50.17
2022-11-10T05:28:01.448Z,48.28
2022-11-10T05:30:47.116Z,44.00
2022-11-10T05:33:33.656Z,41.33
2022-11-10T05:36:19.264Z,32.55
2022-11-10T05:39:05.023Z,38.63
2022-11-10T05:41:50.715Z,41.60
2022-11-10T05:44:36.521Z,46.08
2022-11-10T05:47:22.261Z,45.03
2022-11-10T05:50:08.761Z,45.75
2022-11-10T05:52:55.340Z,35.00
2022-11-10T05:55:41.175Z,36.35
2022-11-10T05:58:26.731Z,44.83
2022-11-10T06:01:12.239Z,70.30
2022-11-10T06:03:58.078Z,88.85
2022-11-10T06:06:43.929Z,85.78
2022-11-10T06:09:29.511Z,71.95
2022-11-10T06:12:15.381Z,65.38
2022-11-10T06:15:02.283Z,57.63
2022-11-10T06:17:48.473Z,57.65
2022-11-10T06:20:34.381Z,57.75
2022-11-10T06:23:20.165Z,58.30
2022-11-10T06:26:06.151Z,57.72
2022-11-10T06:28:51.502Z,46.15
2022-11-10T06:31:37.257Z,43.45
2022-11-10T06:34:22.915Z,41.35
2022-11-10T06:37:08.908Z,31.90
2022-11-10T06:39:54.616Z,49.42
2022-11-10T06:42:40.486Z,32.15
2022-11-10T06:45:27.839Z,44.08
2022-11-10T06:48:14.045Z,44.05
2022-11-10T06:51:01.144Z,40.25
2022-11-10T06:53:47.149Z,43.72
2022-11-10T06:56:32.794Z,46.13
2022-11-10T06:59:18.287Z,31.85
2022-11-10T07:02:04.007Z,42.58
2022-11-10T07:04:50.193Z,33.90
2022-11-10T07:07:35.892Z,36.97
2022-11-10T07:10:21.740Z,36.80
2022-11-10T07:13:08.952Z,39.45
2022-11-10T07:15:54.980Z,43.25
2022-11-10T07:18:40.743Z,38.88
2022-11-10T07:21:26.371Z,38.53
2022-11-10T07:24:12.189Z,78.65
2022-11-10T07:26:58.009Z,42.10
2022-11-10T07:29:43.858Z,46.95
2022-11-10T07:32:29.608Z,49.70
2022-11-10T07:35:15.466Z,70.40
2022-11-10T07:38:13.293Z,53.70
2022-11-10T07:40:59.135Z,50.53
2022-11-10T07:43:44.491Z,55.35
2022-11-10T07:46:30.234Z,47.50
2022-11-10T07:49:16.138Z,51.47
2022-11-10T07:52:01.752Z,44.05
2022-11-10T07:54:47.392Z,63.85
2022-11-10T07:57:33.668Z,81.50
2022-11-10T08:00:19.639Z,104.93
2022-11-10T08:03:09.922Z,78.60
2022-11-10T08:05:56.201Z,81.38
2022-11-10T08:08:41.815Z,70.43
2022-11-10T08:11:27.671Z,69.30
2022-11-10T08:14:13.027Z,77.28
2022-11-10T08:16:58.858Z,59.03
2022-11-10T08:19:44.779Z,76.93
2022-11-10T08:22:30.332Z,63.38
2022-11-10T08:25:16.058Z,59.78
2022-11-10T08:28:09.300Z,59.00
2022-11-10T08:30:55.605Z,55.40
2022-11-10T08:33:41.418Z,59.08
2022-11-10T08:36:26.931Z,65.63
2022-11-10T08:39:24.885Z,66.32
2022-11-10T08:42:18.864Z,80.53
2022-11-10T08:45:05.296Z,61.97
2022-11-10T08:48:04.738Z,62.17
2022-11-10T08:53:36.885Z,65.05
2022-11-10T08:56:22.447Z,65.63
2022-11-10T08:59:08.249Z,63.63
2022-11-10T09:01:53.863Z,57.15
2022-11-10T09:04:39.612Z,56.47
2022-11-10T09:07:25.414Z,64.50
2022-11-10T09:10:12.602Z,43.70
2022-11-10T09:13:03.086Z,48.70
2022-11-10T09:15:48.818Z,52.30
2022-11-10T09:18:34.587Z,46.28
2022-11-10T09:21:20.232Z,39.33
2022-11-10T09:24:06.645Z,43.72
2022-11-10T09:26:52.674Z,31.02
2022-11-10T09:29:38.153Z,38.63
2022-11-10T09:32:23.981Z,35.72
2022-11-10T09:35:09.793Z,39.72
2022-11-10T09:37:55.620Z,38.28
2022-11-10T09:41:06.395Z,34.17
2022-11-10T09:44:13.712Z,39.13
2022-11-10T09:47:19.063Z,53.85
2022-11-10T09:50:54.860Z,42.65
2022-11-10T09:53:54.441Z,51.80
2022-11-10T09:56:41.032Z,34.97
2022-11-10T09:59:31.720Z,35.10
2022-11-10T10:02:40.459Z,42.05
2022-11-10T10:05:34.610Z,27.65
2022-11-10T10:08:24.808Z,41.70
2022-11-10T10:11:47.437Z,33.67
2022-11-10T10:15:10.220Z,37.90
2022-11-10T10:18:08.748Z,28.40
2022-11-10T10:21:09.096Z,28.95
2022-11-10T10:24:18.274Z,29.42
2022-11-10T10:27:08.629Z,24.75
2022-11-10T10:29:55.050Z,29.10
2022-11-10T10:32:41.841Z,60.20
2022-11-10T10:35:28.151Z,31.15
2022-11-10T10:38:28.956Z,29.77
2022-11-10T10:41:29.461Z,25.90
2022-11-10T10:44:18.870Z,26.33
2022-11-10T10:47:04.815Z,22.95
2022-11-10T10:49:50.875Z,23.15
2022-11-10T10:52:36.596Z,32.30
2022-11-10T10:55:28.663Z,28.92
2022-11-10T10:58:29.041Z,32.38
2022-11-10T11:01:18.029Z,30.00
2022-11-10T11:04:30.389Z,29.27
2022-11-10T11:07:24.021Z,34.20
2022-11-10T11:10:22.520Z,28.48
2022-11-10T11:13:27.072Z,28.85
2022-11-10T11:16:12.853Z,33.03
2022-11-10T11:18:59.168Z,32.60
2022-11-10T11:21:56.488Z,25.63
2022-11-10T11:25:22.129Z,30.70
2022-11-10T11:28:58.776Z,32.58
2022-11-10T11:32:21.099Z,30.55
2022-11-10T11:35:18.587Z,26.63
2022-11-10T11:38:27.491Z,26.67
2022-11-10T11:41:23.972Z,25.23
2022-11-10T11:44:55.608Z,35.42
2022-11-10T11:47:54.493Z,34.03
2022-11-10T11:51:04.944Z,30.70
2022-11-10T11:54:21.427Z,26.88
2022-11-10T11:58:10.696Z,34.50
2022-11-10T12:01:16.830Z,25.17
2022-11-10T12:04:30.106Z,26.23
2022-11-10T12:07:46.403Z,27.55
2022-11-10T12:10:43.397Z,28.98
2022-11-10T12:14:20.044Z,23.77
2022-11-10T12:17:51.771Z,21.70
2022-11-10T12:20:55.405Z,27.50
2022-11-10T12:24:19.832Z,23.25
2022-11-10T12:27:30.240Z,21.88
2022-11-10T12:30:17.588Z,21.55
2022-11-10T12:33:44.001Z,25.95
2022-11-10T12:36:31.659Z,26.98
2022-11-10T12:39:40.917Z,24.55
2022-11-10T12:42:29.242Z,27.67
2022-11-10T12:45:25.461Z,26.85
2022-11-10T12:48:13.526Z,27.48
2022-11-10T12:51:05.777Z,23.90
2022-11-10T12:53:52.333Z,25.65
2022-11-10T12:56:43.124Z,26.05
2022-11-10T12:59:35.838Z,23.05
2022-11-10T13:02:41.682Z,24.80
2022-11-10T13:05:40.367Z,26.95
2022-11-10T13:08:40.579Z,26.45
2022-11-10T13:11:33.765Z,36.67
2022-11-10T13:14:28.447Z,28.02
2022-11-10T13:17:26.808Z,39.22
2022-11-10T13:20:50.478Z,48.53
2022-11-10T13:23:37.250Z,32.95
2022-11-10T13:26:43.814Z,28.88
2022-11-10T13:29:37.129Z,37.42
2022-11-10T13:32:31.613Z,39.83
2022-11-10T13:35:54.572Z,34.38
2022-11-10T13:38:43.748Z,23.45
2022-11-10T13:41:33.870Z,23.27
2022-11-10T13:44:31.906Z,30.92
2022-11-10T13:47:35.221Z,26.88
2022-11-10T13:50:49.067Z,31.92
2022-11-10T13:54:02.555Z,40.58
2022-11-10T13:57:24.004Z,38.92
2022-11-10T14:00:16.607Z,26.20
2022-11-10T14:03:05.541Z,22.45
2022-11-10T14:06:07.411Z,17.75
2022-11-10T14:09:02.263Z,12.23
2022-11-10T14:11:59.307Z,38.70
2022-11-10T14:15:06.065Z,17.98
2022-11-10T14:17:56.311Z,81.18
2022-11-10T14:20:46.568Z,21.40
2022-11-10T14:24:06.868Z,21.33
2022-11-10T14:26:57.191Z,25.83
2022-11-10T14:29:42.885Z,15.68
2022-11-10T14:32:28.673Z,17.27
2022-11-10T14:35:22.827Z,15.90
2022-11-10T14:38:23.079Z,15.70
2022-11-10T14:41:20.329Z,24.85
2022-11-10T14:44:12.349Z,22.55
2022-11-10T14:47:30.930Z,30.15
2022-11-10T14:50:19.584Z,15.85
2022-11-10T14:53:14.207Z,19.67
2022-11-10T14:56:02.574Z,16.50
2022-11-10T14:58:49.147Z,14.70
2022-11-10T15:01:40.191Z,17.13
2022-11-10T15:04:31.199Z,22.42
2022-11-10T15:07:18.295Z,22.92
2022-11-10T15:10:21.701Z,25.55
2022-11-10T15:13:13.304Z,22.25
2022-11-10T15:16:31.098Z,28.45
2022-11-10T15:19:30.935Z,20.67
2022-11-10T15:22:32.963Z,26.70
2022-11-10T15:25:22.969Z,24.15
2022-11-10T15:28:16.667Z,17.70
2022-11-10T15:31:09.196Z,18.75
2022-11-10T15:34:01.896Z,27.90
2022-11-10T15:36:47.751Z,26.95
2022-11-10T15:39:33.601Z,23.85
2022-11-10T15:42:24.492Z,18.17
2022-11-10T15:45:09.975Z,28.25
2022-11-10T15:47:56.173Z,26.05
2022-11-10T15:50:45.674Z,24.40
2022-11-10T15:56:23.439Z,28.27
2022-11-10T15:59:10.560Z,24.45
2022-11-10T16:01:56.820Z,27.80
2022-11-10T16:04:42.671Z,22.48
2022-11-10T16:07:28.441Z,23.08
2022-11-10T16:10:14.384Z,24.80
2022-11-10T16:12:59.804Z,22.27
2022-11-10T16:15:45.496Z,27.45
2022-11-10T16:18:31.377Z,28.38
2022-11-10T16:21:23.846Z,26.15
2022-11-10T16:24:09.841Z,35.33
2022-11-10T16:26:55.887Z,68.00
2022-11-10T16:29:42.458Z,43.97
2022-11-10T16:32:28.272Z,47.75
2022-11-10T16:35:14.827Z,37.75
2022-11-10T16:38:00.878Z,36.90
2022-11-10T16:40:54.722Z,32.05
2022-11-10T16:43:40.914Z,34.92
2022-11-10T16:46:29.695Z,33.90
2022-11-10T16:49:36.739Z,38.38
2022-11-10T16:52:22.619Z,29.20
2022-11-10T16:55:13.239Z,35.28
2022-11-10T16:57:59.261Z,29.65
2022-11-10T17:00:47.191Z,31.40
2022-11-10T17:03:38.224Z,35.92
2022-11-10T17:06:26.791Z,41.38
2022-11-10T17:09:26.034Z,33.70
2022-11-10T17:14:58.529Z,44.63
2022-11-10T17:17:47.049Z,38.88
2022-11-10T17:20:39.062Z,43.83
2022-11-10T17:23:25.835Z,48.33
2022-11-10T17:26:15.444Z,47.92
2022-11-10T17:31:49.688Z,46.40
2022-11-10T17:34:35.658Z,60.25
2022-11-10T17:37:21.735Z,50.83
2022-11-10T17:40:23.335Z,39.70
2022-11-10T17:43:12.149Z,33.78
2022-11-10T17:45:59.013Z,35.92
2022-11-10T17:48:46.960Z,37.92
2022-11-10T17:51:34.213Z,36.72
2022-11-10T17:54:20.000Z,39.67
2022-11-10T17:57:08.311Z,28.60
2022-11-10T17:59:54.844Z,34.50
2022-11-10T18:02:42.037Z,32.95
2022-11-10T18:05:28.327Z,28.48
2022-11-10T18:08:15.827Z,29.13
2022-11-10T18:11:01.426Z,30.77
2022-11-10T18:13:47.196Z,40.10
2022-11-10T18:16:33.035Z,30.55
2022-11-10T18:19:18.871Z,30.80
2022-11-10T18:22:04.615Z,29.58
2022-11-10T18:24:50.731Z,33.47
2022-11-10T18:27:36.450Z,43.35
2022-11-10T18:30:22.205Z,38.95
2022-11-10T18:33:09.099Z,38.75
2022-11-10T18:35:59.609Z,41.92
2022-11-10T18:38:45.671Z,48.90
2022-11-10T18:41:49.929Z,46.40
2022-11-10T18:44:36.495Z,51.60
2022-11-10T18:47:22.637Z,49.90
2022-11-10T18:50:09.196Z,68.13
2022-11-10T18:52:55.050Z,67.55
2022-11-10T18:55:45.422Z,55.45
2022-11-10T18:58:31.788Z,59.28
2022-11-10T19:01:18.421Z,66.32
2022-11-10T19:04:04.441Z,55.03
2022-11-10T19:06:50.418Z,52.72
2022-11-10T19:09:36.168Z,56.40
2022-11-10T19:12:26.531Z,61.88
2022-11-10T19:15:12.832Z,68.10
2022-11-10T19:17:58.431Z,74.15
2022-11-10T19:20:44.135Z,78.97
2022-11-10T19:23:30.104Z,78.22
2022-11-10T19:26:22.522Z,112.10
2022-11-10T19:29:08.664Z,103.95
2022-11-10T19:31:54.475Z,92.60
2022-11-10T19:34:40.195Z,78.85
2022-11-10T19:37:29.813Z,75.22
2022-11-10T19:40:19.290Z,64.38
2022-11-10T19:43:05.266Z,62.47
2022-11-10T19:45:50.802Z,76.05
2022-11-10T19:48:36.707Z,58.88
2022-11-10T19:51:23.915Z,61.40
2022-11-10T19:54:12.745Z,56.00
2022-11-10T19:56:58.553Z,85.72
2022-11-10T19:59:44.199Z,76.15
2022-11-10T20:02:29.777Z,63.55
2022-11-10T20:05:16.148Z,55.70
2022-11-10T20:08:11.647Z,56.33
2022-11-10T20:11:04.663Z,60.83
2022-11-10T20:13:55.168Z,48.60
2022-11-10T20:16:41.301Z,56.40
2022-11-10T20:19:27.174Z,58.33
2022-11-10T20:22:13.050Z,61.67
2022-11-10T20:24:59.415Z,54.40
2022-11-10T20:27:45.137Z,53.20
2022-11-10T20:30:41.253Z,56.40
2022-11-10T20:33:27.988Z,53.80
2022-11-10T20:36:21.026Z,57.33
2022-11-10T20:39:06.745Z,51.88
2022-11-10T20:41:52.544Z,56.60
2022-11-10T20:44:38.349Z,51.35
2022-11-10T20:47:25.166Z,54.28
2022-11-10T20:50:15.439Z,50.50
2022-11-10T20:53:05.132Z,56.35
2022-11-10T20:56:01.275Z,48.45
2022-11-10T20:58:48.388Z,60.13
2022-11-10T21:01:34.281Z,62.08
2022-11-10T21:04:20.122Z,55.70
2022-11-10T21:07:05.805Z,48.63
2022-11-10T21:09:51.390Z,47.72
2022-11-10T21:12:49.681Z,50.67
2022-11-10T21:15:38.812Z,48.05
2022-11-10T21:18:33.865Z,44.42
2022-11-10T21:21:25.763Z,51.67
2022-11-10T21:24:11.622Z,87.13
2022-11-10T21:26:58.034Z,70.38
2022-11-10T21:29:43.652Z,67.25
2022-11-10T21:32:29.602Z,71.22
2022-11-10T21:35:16.332Z,65.45
2022-11-10T21:38:02.300Z,72.88
2022-11-10T21:40:48.656Z,78.43
2022-11-10T21:43:34.774Z,76.85
2022-11-10T21:46:20.488Z,74.18
2022-11-10T21:49:07.916Z,98.63
2022-11-10T21:51:54.112Z,100.72
2022-11-10T21:54:39.791Z,105.75
2022-11-10T21:57:25.743Z,110.07
2022-11-10T22:00:13.294Z,84.60
2022-11-10T22:03:03.145Z,81.25
2022-11-10T22:05:48.862Z,81.72
2022-11-10T22:08:35.876Z,80.57
2022-11-10T22:11:40.575Z,72.93
2022-11-10T22:14:45.252Z,76.80
2022-11-10T22:17:50.120Z,67.30
2022-11-10T22:20:36.091Z,57.90
2022-11-10T22:23:42.039Z,67.57
2022-11-10T22:26:27.666Z,53.42
2022-11-10T22:29:13.525Z,61.70
2022-11-10T22:32:01.666Z,62.47
2022-11-10T22:34:47.502Z,60.25
2022-11-10T22:37:33.422Z,67.95
2022-11-10T22:40:37.937Z,59.92
2022-11-10T22:43:42.707Z,68.00
2022-11-10T22:46:31.337Z,64.90
2022-11-10T22:49:20.646Z,61.67
2022-11-10T22:52:06.339Z,53.50
2022-11-10T22:54:52.040Z,55.50
2022-11-10T22:57:38.027Z,70.70
2022-11-10T23:00:23.507Z,53.08
2022-11-10T23:03:11.876Z,53.05
2022-11-10T23:05:57.850Z,65.85
2022-11-10T23:08:44.311Z,60.72
2022-11-10T23:11:31.571Z,58.67
2022-11-10T23:14:17.268Z,52.30
2022-11-10T23:17:02.913Z,56.28
2022-11-10T23:19:48.996Z,70.57
2022-11-10T23:22:34.486Z,68.20
2022-11-10T23:25:20.217Z,63.42
2022-11-10T23:28:05.945Z,53.85
2022-11-10T23:30:51.801Z,59.85
2022-11-10T23:33:39.675Z,58.20
2022-11-10T23:36:27.199Z,56.78
2022-11-10T23:39:13.088Z,55.90
2022-11-10T23:41:58.747Z,65.10
2022-11-10T23:44:44.511Z,56.28
2022-11-10T23:47:30.442Z,48.47
2022-11-10T23:50:16.025Z,47.00
2022-11-10T23:53:02.098Z,68.10
2022-11-10T23:55:57.784Z,58.60
2022-11-10T23:58:43.492Z,49.20
